createdAt,value
2023-08-05T00:01:46.020Z,7.57
2023-08-05T00:04:19.321Z,6.53
2023-08-05T00:06:52.043Z,6.93
2023-08-05T00:09:24.554Z,6.20
2023-08-05T00:11:56.914Z,7.40
2023-08-05T00:14:29.307Z,6.88
2023-08-05T00:17:02.164Z,6.63
2023-08-05T00:19:35.236Z,7.57
2023-08-05T00:22:07.949Z,6.90
2023-08-05T00:24:40.927Z,7.25
2023-08-05T00:27:13.308Z,7.47
2023-08-05T00:29:46.624Z,6.93
2023-08-05T00:32:19.046Z,7.05
2023-08-05T00:34:53.118Z,7.22
2023-08-05T00:37:25.462Z,7.25
2023-08-05T00:39:57.898Z,6.75
2023-08-05T00:42:30.331Z,7.60
2023-08-05T00:45:02.968Z,6.93
2023-08-05T00:47:37.028Z,7.32
2023-08-05T00:50:13.491Z,6.80
2023-08-05T00:52:45.982Z,7.60
2023-08-05T00:55:18.486Z,7.55
2023-08-05T00:57:51.367Z,7.80
2023-08-05T01:00:24.265Z,7.55
2023-08-05T01:02:56.641Z,7.07
2023-08-05T01:05:30.383Z,7.28
2023-08-05T01:08:05.220Z,7.97
2023-08-05T01:10:37.591Z,7.30
2023-08-05T01:13:10.308Z,7.43
2023-08-05T01:15:42.838Z,7.45
2023-08-05T01:18:18.029Z,7.85
2023-08-05T01:20:53.430Z,7.47
2023-08-05T01:23:36.481Z,6.43
2023-08-05T01:26:11.424Z,7.05
2023-08-05T01:28:46.122Z,7.45
2023-08-05T01:31:19.328Z,7.22
2023-08-05T01:33:52.550Z,7.63
2023-08-05T01:36:25.031Z,8.25
2023-08-05T01:38:57.355Z,7.93
2023-08-05T01:41:30.810Z,8.10
2023-08-05T01:44:03.183Z,7.70
2023-08-05T01:46:35.548Z,7.22
2023-08-05T01:49:07.930Z,7.55
2023-08-05T01:51:40.334Z,7.30
2023-08-05T01:54:12.698Z,8.18
2023-08-05T01:56:45.765Z,7.72
2023-08-05T01:59:18.131Z,7.55
2023-08-05T02:01:50.583Z,7.38
2023-08-05T02:04:22.925Z,7.72
2023-08-05T02:06:55.453Z,7.63
2023-08-05T02:09:27.878Z,7.30
2023-08-05T02:12:00.945Z,8.13
2023-08-05T02:14:33.972Z,10.57
2023-08-05T02:17:06.863Z,7.97
2023-08-05T02:19:39.441Z,7.57
2023-08-05T02:22:11.783Z,9.40
2023-08-05T02:24:44.129Z,8.25
2023-08-05T02:27:19.056Z,7.65
2023-08-05T02:29:51.381Z,7.32
2023-08-05T02:32:23.729Z,7.35
2023-08-05T02:34:57.273Z,7.78
2023-08-05T02:37:29.709Z,7.22
2023-08-05T02:40:03.980Z,7.25
2023-08-05T02:42:37.067Z,7.50
2023-08-05T02:45:09.772Z,7.88
2023-08-05T02:47:42.188Z,8.15
2023-08-05T02:50:14.541Z,8.82
2023-08-05T02:52:46.970Z,8.05
2023-08-05T02:55:19.328Z,8.30
2023-08-05T02:57:52.734Z,8.52
2023-08-05T03:00:25.184Z,7.30
2023-08-05T03:02:57.569Z,8.63
2023-08-05T03:05:30.019Z,7.72
2023-08-05T03:08:03.184Z,8.05
2023-08-05T03:10:35.510Z,8.18
2023-08-05T03:13:08.492Z,8.05
2023-08-05T03:15:40.892Z,7.68
2023-08-05T03:18:21.179Z,7.22
2023-08-05T03:20:53.683Z,7.68
2023-08-05T03:23:26.608Z,7.85
2023-08-05T03:26:00.934Z,8.07
2023-08-05T03:28:34.039Z,8.20
2023-08-05T03:31:06.617Z,8.10
2023-08-05T03:33:39.077Z,7.47
2023-08-05T03:36:13.413Z,7.78
2023-08-05T03:38:46.001Z,8.43
2023-08-05T03:41:18.402Z,8.05
2023-08-05T03:43:51.418Z,7.93
2023-08-05T03:46:23.805Z,8.30
2023-08-05T03:48:56.551Z,7.22
2023-08-05T03:51:28.972Z,7.63
2023-08-05T03:54:02.193Z,7.65
2023-08-05T03:56:34.711Z,7.68
2023-08-05T03:59:09.113Z,7.05
2023-08-05T04:01:41.673Z,7.72
2023-08-05T04:04:14.141Z,7.13
2023-08-05T04:06:46.558Z,7.65
2023-08-05T04:09:21.945Z,8.05
2023-08-05T04:11:54.560Z,7.57
2023-08-05T04:14:27.568Z,8.02
2023-08-05T04:17:02.450Z,7.90
2023-08-05T04:19:34.944Z,8.13
2023-08-05T04:22:07.522Z,7.68
2023-08-05T04:24:42.345Z,8.32
2023-08-05T04:27:14.947Z,7.93
2023-08-05T04:29:48.055Z,8.23
2023-08-05T04:32:21.170Z,7.95
2023-08-05T04:34:53.592Z,8.75
2023-08-05T04:37:27.256Z,9.05
2023-08-05T04:39:59.574Z,9.15
2023-08-05T04:42:31.879Z,8.70
2023-08-05T04:45:06.164Z,8.40
2023-08-05T04:47:38.523Z,8.85
2023-08-05T04:50:10.952Z,10.38
2023-08-05T04:52:44.788Z,8.52
2023-08-05T04:55:17.167Z,8.45
2023-08-05T04:57:53.052Z,8.75
2023-08-05T05:00:26.468Z,8.70
2023-08-05T05:02:58.874Z,7.43
2023-08-05T05:05:33.494Z,8.68
2023-08-05T05:08:05.833Z,7.70
2023-08-05T05:10:38.208Z,9.52
2023-08-05T05:13:10.563Z,7.75
2023-08-05T05:15:43.579Z,8.50
2023-08-05T05:18:15.925Z,7.90
2023-08-05T05:20:50.330Z,7.97
2023-08-05T05:23:22.756Z,7.90
2023-08-05T05:25:55.116Z,7.55
2023-08-05T05:28:27.434Z,8.07
2023-08-05T05:31:03.273Z,7.85
2023-08-05T05:33:35.850Z,7.07
2023-08-05T05:36:08.160Z,6.57
2023-08-05T05:38:40.507Z,7.68
2023-08-05T05:41:12.883Z,7.07
2023-08-05T05:43:45.260Z,6.68
2023-08-05T05:46:20.128Z,6.88
2023-08-05T05:48:52.525Z,7.03
2023-08-05T05:51:24.883Z,8.35
2023-08-05T05:53:58.102Z,6.18
2023-08-05T05:56:31.302Z,6.32
2023-08-05T05:59:03.687Z,6.90
2023-08-05T06:01:36.702Z,7.45
2023-08-05T06:04:09.960Z,6.07
2023-08-05T06:06:42.443Z,7.68
2023-08-05T06:09:15.536Z,7.03
2023-08-05T06:11:48.105Z,6.68
2023-08-05T06:14:21.414Z,6.85
2023-08-05T06:16:54.812Z,7.80
2023-08-05T06:19:27.498Z,7.50
2023-08-05T06:21:59.889Z,7.50
2023-08-05T06:24:32.226Z,6.90
2023-08-05T06:27:05.314Z,6.32
2023-08-05T06:29:37.677Z,6.60
2023-08-05T06:32:10.740Z,6.88
2023-08-05T06:34:43.070Z,5.85
2023-08-05T06:37:15.380Z,5.35
2023-08-05T06:39:47.748Z,5.57
2023-08-05T06:42:23.833Z,5.40
2023-08-05T06:44:56.182Z,5.65
2023-08-05T06:47:31.715Z,5.03
2023-08-05T06:50:07.069Z,6.18
2023-08-05T06:52:39.406Z,5.47
2023-08-05T06:55:12.596Z,6.00
2023-08-05T06:57:45.656Z,4.93
2023-08-05T07:00:18.256Z,5.18
2023-08-05T07:02:51.586Z,5.40
2023-08-05T07:05:24.206Z,5.60
2023-08-05T07:07:56.613Z,5.63
2023-08-05T07:10:28.991Z,5.63
2023-08-05T07:13:06.142Z,6.72
2023-08-05T07:15:38.508Z,5.13
2023-08-05T07:18:11.599Z,5.10
2023-08-05T07:20:43.961Z,5.55
2023-08-05T07:23:16.304Z,5.60
2023-08-05T07:25:48.869Z,6.20
2023-08-05T07:28:21.242Z,6.38
2023-08-05T07:31:02.877Z,5.75
2023-08-05T07:33:35.892Z,5.45
2023-08-05T07:36:09.949Z,5.30
2023-08-05T07:38:45.036Z,5.10
2023-08-05T07:41:19.351Z,5.40
2023-08-05T07:43:51.840Z,5.90
2023-08-05T07:46:26.107Z,5.90
2023-08-05T07:49:01.106Z,6.45
2023-08-05T07:51:33.446Z,5.90
2023-08-05T07:54:05.883Z,5.70
2023-08-05T07:56:39.780Z,5.03
2023-08-05T07:59:13.441Z,5.72
2023-08-05T08:01:46.404Z,5.55
2023-08-05T08:04:19.480Z,5.50
2023-08-05T08:06:52.579Z,5.63
2023-08-05T08:09:24.900Z,5.40
2023-08-05T08:11:57.244Z,6.20
2023-08-05T08:14:29.604Z,6.13
2023-08-05T08:17:01.953Z,5.78
2023-08-05T08:19:34.979Z,6.28
2023-08-05T08:22:07.331Z,6.47
2023-08-05T08:24:39.653Z,5.50
2023-08-05T08:27:11.948Z,6.45
2023-08-05T08:29:44.304Z,5.43
2023-08-05T08:32:16.665Z,6.03
2023-08-05T08:34:49.674Z,5.97
2023-08-05T08:37:22.126Z,6.65
2023-08-05T08:39:54.453Z,6.03
2023-08-05T08:42:27.539Z,5.88
2023-08-05T08:45:01.693Z,6.00
2023-08-05T08:47:35.909Z,5.93
2023-08-05T08:50:09.955Z,6.88
2023-08-05T08:52:45.879Z,6.15
2023-08-05T08:55:20.493Z,6.45
2023-08-05T08:57:52.880Z,6.13
2023-08-05T09:00:27.072Z,5.95
2023-08-05T09:03:01.014Z,6.20
2023-08-05T09:05:41.165Z,5.55
2023-08-05T09:08:14.060Z,5.40
2023-08-05T09:10:46.405Z,6.55
2023-08-05T09:13:20.100Z,5.80
2023-08-05T09:15:55.575Z,5.38
2023-08-05T09:18:28.023Z,6.22
2023-08-05T09:21:02.324Z,5.90
2023-08-05T09:23:45.240Z,6.10
2023-08-05T09:26:27.584Z,7.00
2023-08-05T09:29:01.095Z,6.45
2023-08-05T09:31:33.494Z,6.25
2023-08-05T09:34:05.906Z,6.15
2023-08-05T09:36:41.211Z,6.40
2023-08-05T09:39:16.631Z,5.85
2023-08-05T09:41:52.292Z,6.40
2023-08-05T09:44:24.780Z,5.97
2023-08-05T09:47:03.213Z,6.07
2023-08-05T09:49:38.199Z,6.07
2023-08-05T09:52:12.504Z,5.97
2023-08-05T09:54:51.384Z,6.18
2023-08-05T09:57:26.286Z,7.28
2023-08-05T10:00:01.406Z,6.07
2023-08-05T10:02:41.828Z,6.70
2023-08-05T10:05:14.858Z,6.78
2023-08-05T10:07:48.091Z,6.22
2023-08-05T10:10:21.472Z,6.22
2023-08-05T10:13:03.519Z,6.78
2023-08-05T10:15:39.693Z,7.25
2023-08-05T10:18:14.933Z,6.07
2023-08-05T10:20:50.882Z,7.35
2023-08-05T10:23:25.925Z,7.55
2023-08-05T10:26:00.475Z,6.80
2023-08-05T10:28:41.506Z,6.32
2023-08-05T10:31:29.060Z,6.72
2023-08-05T10:34:12.236Z,6.50
2023-08-05T10:36:45.960Z,6.72
2023-08-05T10:39:43.891Z,6.40
2023-08-05T10:42:36.675Z,6.95
2023-08-05T10:45:10.131Z,6.57
2023-08-05T10:47:48.743Z,7.28
2023-08-05T10:52:54.141Z,7.28
2023-08-05T10:55:27.346Z,6.90
2023-08-05T10:57:59.778Z,6.68
2023-08-05T11:00:39.560Z,6.88
2023-08-05T11:03:32.222Z,7.55
2023-08-05T11:06:05.948Z,7.28
2023-08-05T11:08:40.227Z,7.85
2023-08-05T11:11:14.401Z,7.00
2023-08-05T11:13:49.152Z,6.70
2023-08-05T11:16:21.562Z,7.80
2023-08-05T11:18:57.442Z,7.32
2023-08-05T11:21:29.824Z,6.93
2023-08-05T11:24:02.185Z,7.28
2023-08-05T11:26:35.889Z,6.55
2023-08-05T11:29:08.422Z,7.88
2023-08-05T11:31:50.653Z,7.53
2023-08-05T11:34:25.128Z,7.35
2023-08-05T11:36:57.737Z,7.68
2023-08-05T11:39:30.088Z,7.28
2023-08-05T11:42:03.537Z,7.85
2023-08-05T11:44:35.901Z,7.10
2023-08-05T11:47:09.921Z,7.65
2023-08-05T11:49:51.791Z,7.57
2023-08-05T11:52:24.140Z,6.93
2023-08-05T11:54:58.176Z,7.53
2023-08-05T11:57:32.894Z,6.82
2023-08-05T12:00:06.999Z,7.63
2023-08-05T12:02:39.384Z,7.72
2023-08-05T12:05:12.554Z,7.03
2023-08-05T12:07:45.114Z,7.50
2023-08-05T12:10:19.031Z,7.72
2023-08-05T12:12:52.160Z,8.00
2023-08-05T12:15:28.931Z,7.82
2023-08-05T12:18:03.519Z,7.68
2023-08-05T12:20:37.728Z,7.78
2023-08-05T12:23:10.066Z,6.88
2023-08-05T12:25:42.606Z,7.20
2023-08-05T12:28:15.611Z,7.70
2023-08-05T12:30:47.926Z,7.10
2023-08-05T12:33:20.337Z,7.22
2023-08-05T12:35:53.957Z,8.25
2023-08-05T12:38:26.280Z,7.80
2023-08-05T12:40:58.591Z,7.22
2023-08-05T12:43:31.550Z,6.15
2023-08-05T12:46:03.922Z,7.10
2023-08-05T12:48:36.285Z,6.32
2023-08-05T12:51:08.617Z,6.78
2023-08-05T12:53:42.063Z,6.28
2023-08-05T12:56:15.046Z,6.60
2023-08-05T12:58:48.123Z,6.55
2023-08-05T13:01:20.491Z,6.68
2023-08-05T13:03:52.873Z,6.25
2023-08-05T13:06:25.359Z,6.20
2023-08-05T13:08:57.734Z,6.13
2023-08-05T13:11:30.129Z,6.18
2023-08-05T13:14:03.171Z,6.53
2023-08-05T13:16:35.566Z,7.05
2023-08-05T13:19:08.433Z,6.97
2023-08-05T13:21:40.822Z,6.85
2023-08-05T13:24:13.210Z,7.00
2023-08-05T13:26:45.513Z,7.05
2023-08-05T13:29:18.530Z,6.82
2023-08-05T13:31:51.425Z,6.15
2023-08-05T13:34:23.921Z,7.13
2023-08-05T13:36:56.300Z,7.45
2023-08-05T13:39:28.624Z,7.20
2023-08-05T13:42:02.090Z,6.53
2023-08-05T13:44:36.407Z,6.88
2023-08-05T13:47:08.880Z,6.57
2023-08-05T13:49:41.198Z,6.78
2023-08-05T13:52:13.523Z,6.75
2023-08-05T13:54:45.815Z,6.68
2023-08-05T13:57:18.161Z,6.35
2023-08-05T13:59:51.163Z,6.72
2023-08-05T15:10:09.245Z,5.32
2023-08-05T15:12:42.272Z,5.43
2023-08-05T15:15:14.678Z,5.45
2023-08-05T15:17:47.199Z,5.93
2023-08-05T15:20:19.553Z,5.30
2023-08-05T15:22:51.983Z,5.07
2023-08-05T15:25:24.342Z,5.45
2023-08-05T15:27:57.334Z,5.43
2023-08-05T15:30:35.401Z,6.80
2023-08-05T15:33:07.766Z,5.77
2023-08-05T15:35:40.161Z,5.30
2023-08-05T15:38:12.552Z,5.60
2023-08-05T15:40:44.857Z,6.32
2023-08-05T15:43:18.868Z,6.55
2023-08-05T15:45:55.407Z,5.30
2023-08-05T15:48:27.857Z,5.75
2023-08-05T15:51:04.177Z,5.95
2023-08-05T15:53:36.496Z,5.38
2023-08-05T15:56:10.412Z,5.93
2023-08-05T15:58:44.177Z,6.35
2023-08-05T16:01:16.591Z,5.55
2023-08-05T16:03:48.975Z,5.78
2023-08-05T16:06:21.341Z,5.65
2023-08-05T16:08:53.648Z,6.75
2023-08-05T16:11:26.518Z,5.60
2023-08-05T16:13:59.556Z,6.20
2023-08-05T16:16:31.907Z,5.80
2023-08-05T16:19:04.346Z,5.15
2023-08-05T16:21:37.174Z,5.97
2023-08-05T16:24:09.585Z,5.13
2023-08-05T16:26:42.805Z,5.95
2023-08-05T16:29:15.884Z,6.07
2023-08-05T16:31:48.274Z,5.30
2023-08-05T16:34:20.605Z,6.03
2023-08-05T16:36:52.935Z,6.53
2023-08-05T16:39:25.261Z,5.80
2023-08-05T16:41:57.964Z,5.78
2023-08-05T16:44:31.272Z,6.00
2023-08-05T16:47:04.973Z,5.38
2023-08-05T16:49:38.850Z,5.55
2023-08-05T16:52:11.231Z,5.22
2023-08-05T16:54:45.491Z,6.80
2023-08-05T16:57:17.848Z,5.65
2023-08-05T16:59:51.000Z,5.43
2023-08-05T17:02:23.372Z,6.03
2023-08-05T17:04:56.286Z,6.55
2023-08-05T17:07:28.843Z,6.57
2023-08-05T17:10:01.872Z,6.63
2023-08-05T17:12:34.244Z,7.05
2023-08-05T17:15:08.830Z,6.85
2023-08-05T17:17:41.238Z,6.90
2023-08-05T17:20:13.526Z,6.57
2023-08-05T17:22:45.809Z,5.90
2023-08-05T17:25:18.165Z,6.38
2023-08-05T17:27:50.689Z,6.22
2023-08-05T17:30:23.865Z,5.57
2023-08-05T17:32:56.254Z,6.15
2023-08-05T17:35:29.674Z,5.60
2023-08-05T17:38:03.324Z,4.78
2023-08-05T17:40:35.808Z,5.10
2023-08-05T17:43:08.205Z,4.93
2023-08-05T17:45:41.248Z,5.82
2023-08-05T17:48:13.596Z,5.68
2023-08-05T17:50:45.934Z,4.95
2023-08-05T17:53:25.127Z,4.97
2023-08-05T17:55:58.211Z,4.90
2023-08-05T17:58:30.541Z,5.32
2023-08-05T18:01:03.938Z,5.38
2023-08-05T18:03:36.412Z,5.57
2023-08-05T18:06:20.342Z,5.43
2023-08-05T18:08:54.019Z,6.15
2023-08-05T18:11:26.334Z,6.20
2023-08-05T18:13:58.968Z,5.47
2023-08-05T18:16:32.064Z,6.88
2023-08-05T18:19:05.117Z,6.10
2023-08-05T18:21:37.869Z,6.40
2023-08-05T18:24:10.332Z,6.18
2023-08-05T18:26:42.736Z,7.03
2023-08-05T18:29:17.364Z,5.72
2023-08-05T18:31:50.761Z,6.22
2023-08-05T18:34:24.715Z,5.82
2023-08-05T18:36:57.110Z,6.60
2023-08-05T18:39:32.152Z,6.45
2023-08-05T18:42:04.966Z,5.85
2023-08-05T18:44:37.443Z,5.65
2023-08-05T18:47:10.456Z,6.50
2023-08-05T18:49:42.930Z,6.50
2023-08-05T18:52:18.176Z,6.47
2023-08-05T18:54:50.589Z,6.60
2023-08-05T18:57:22.983Z,4.57
2023-08-05T18:59:55.372Z,3.72
2023-08-05T19:02:28.787Z,3.78
2023-08-05T19:05:01.915Z,4.28
2023-08-05T19:07:34.272Z,3.78
2023-08-05T19:10:07.061Z,3.15
2023-08-05T19:12:39.380Z,2.85
2023-08-05T19:15:11.769Z,2.78
2023-08-05T19:17:46.977Z,2.28
2023-08-05T19:20:19.408Z,2.35
2023-08-05T19:22:51.806Z,2.25
2023-08-05T19:25:24.167Z,2.33
2023-08-05T19:27:56.532Z,2.03
2023-08-05T19:30:28.860Z,2.38
2023-08-05T19:33:01.972Z,2.28
2023-08-05T19:35:34.401Z,2.40
2023-08-05T19:38:06.722Z,2.42
2023-08-05T19:40:39.091Z,2.10
2023-08-05T19:43:11.455Z,1.50
2023-08-05T19:45:46.068Z,2.08
2023-08-05T19:48:19.159Z,1.73
2023-08-05T19:51:07.148Z,1.65
2023-08-05T19:53:46.494Z,2.08
2023-08-05T19:56:18.984Z,1.92
2023-08-05T19:58:51.316Z,1.67
2023-08-05T20:01:23.717Z,1.70
2023-08-05T20:03:56.799Z,1.73
2023-08-05T20:06:29.192Z,1.73
2023-08-05T20:09:02.275Z,1.27
2023-08-05T20:11:34.631Z,1.88
2023-08-05T20:14:07.012Z,1.33
2023-08-05T20:16:39.433Z,1.50
2023-08-05T20:19:12.486Z,1.45
2023-08-05T20:21:44.903Z,1.95
2023-08-05T20:24:19.406Z,1.60
2023-08-05T20:26:52.137Z,1.50
2023-08-05T20:29:24.929Z,1.45
2023-08-05T20:31:57.298Z,1.70
2023-08-05T20:34:30.405Z,1.63
2023-08-05T20:37:02.894Z,1.95
2023-08-05T20:39:35.431Z,1.58
2023-08-05T20:42:07.738Z,1.33
2023-08-05T20:44:40.052Z,1.30
2023-08-05T20:47:13.054Z,1.30
2023-08-05T20:49:46.114Z,1.35
2023-08-05T20:52:18.758Z,1.75
2023-08-05T20:54:51.721Z,1.45
2023-08-05T20:57:24.080Z,2.05
2023-08-05T20:59:56.413Z,1.50
2023-08-05T21:02:30.128Z,1.83
2023-08-05T21:05:03.752Z,1.58
2023-08-05T21:07:36.098Z,1.25
2023-08-05T21:10:09.163Z,1.65
2023-08-05T21:12:41.662Z,1.40
2023-08-05T21:15:14.159Z,2.13
2023-08-05T21:17:46.493Z,2.17
2023-08-05T21:20:21.790Z,2.15
2023-08-05T21:22:54.557Z,2.08
2023-08-05T21:25:28.045Z,2.17
2023-08-05T21:28:00.384Z,2.22
2023-08-05T21:30:55.281Z,2.40
2023-08-05T21:33:28.325Z,1.95
2023-08-05T21:36:01.706Z,2.15
2023-08-05T21:38:34.085Z,2.20
2023-08-05T21:41:06.440Z,2.15
2023-08-05T21:43:39.829Z,2.20
2023-08-05T21:46:12.498Z,1.75
2023-08-05T21:48:44.896Z,2.10
2023-08-05T21:51:17.998Z,1.67
2023-08-05T21:53:50.350Z,1.60
2023-08-05T21:56:23.753Z,1.73
2023-08-05T21:58:56.168Z,2.10
2023-08-05T22:01:28.694Z,2.25
2023-08-05T22:04:02.202Z,2.08
2023-08-05T22:06:35.260Z,2.28
2023-08-05T22:09:07.706Z,1.88
2023-08-05T22:11:40.031Z,2.20
2023-08-05T22:14:12.444Z,1.70
2023-08-05T22:16:44.776Z,2.00
2023-08-05T22:19:17.110Z,2.05
2023-08-05T22:21:51.864Z,2.45
2023-08-05T22:24:34.395Z,2.05
2023-08-05T22:27:12.186Z,2.58
2023-08-05T22:29:44.646Z,1.98
2023-08-05T22:32:17.061Z,2.00
2023-08-05T22:34:52.344Z,1.65
2023-08-05T22:37:25.644Z,1.70
2023-08-05T22:39:58.930Z,2.20
2023-08-05T22:42:31.674Z,1.90
2023-08-05T22:45:04.796Z,1.65
2023-08-05T22:47:37.242Z,1.83
2023-08-05T22:50:10.105Z,1.95
2023-08-05T22:52:43.104Z,2.03
2023-08-05T22:55:15.601Z,2.20
2023-08-05T22:57:47.962Z,1.83
2023-08-05T23:00:20.285Z,1.75
2023-08-05T23:02:52.903Z,1.90
2023-08-05T23:05:25.642Z,1.73
2023-08-05T23:07:59.039Z,1.80
2023-08-05T23:10:32.168Z,2.42
2023-08-05T23:13:04.560Z,1.88
2023-08-05T23:15:37.012Z,1.42
2023-08-05T23:18:09.986Z,1.92
2023-08-05T23:20:42.443Z,2.80
2023-08-05T23:23:15.747Z,1.90
2023-08-05T23:25:48.183Z,1.70
2023-08-05T23:28:20.740Z,1.85
2023-08-05T23:30:53.119Z,2.60
2023-08-05T23:33:25.501Z,2.13
2023-08-05T23:35:58.224Z,2.20
2023-08-05T23:38:31.277Z,2.47
2023-08-05T23:41:03.967Z,2.70
2023-08-05T23:43:36.317Z,2.10
2023-08-05T23:46:08.616Z,2.25
2023-08-05T23:48:40.956Z,2.00
2023-08-05T23:51:13.634Z,2.08
2023-08-05T23:53:46.744Z,2.10
2023-08-05T23:56:19.268Z,2.25
2023-08-05T23:58:51.648Z,1.98
